Spirit Of Vi — CFL2070 — position and weather

sailwx.info

Track history (hours):
 
Tides and Currents Weather Stations Pressure Air Temp Water Temp Dewpoint Dewpoint Depression Visibility Wind Speed Wind Dir Waves Ship Positions

Spirit Of Vi

Last reported at 2017-Aug-20 13:25 UTC. Time now 2017-Aug-20 13:40 UTC.
Position N 48°41' W 123°25'.

Length 168 m; draft 5 m.

Type: Ship. MMSI: 316001269.

Date/timePositionNaut miles runAvg speedWind from/ knotsBaromVisibWave heightAir tempDewpointWater temp
2017-Aug-20 13:25N 48°41' W 123°25'0 0.0
2017-Aug-20 12:58N 48°41' W 123°25'0 0.0
2017-Aug-20 12:29N 48°41' W 123°25'0 0.0
2017-Aug-20 11:17N 48°41' W 123°25'0 0.0
2017-Aug-20 10:53N 48°41' W 123°25'0 0.0
2017-Aug-20 10:29N 48°41' W 123°25'0 0.0
2017-Aug-20 09:11N 48°41' W 123°25'0 0.0
2017-Aug-20 08:47N 48°41' W 123°25'0 0.0
2017-Aug-20 08:29N 48°41' W 123°25'0 0.0
2017-Aug-20 07:59N 48°41' W 123°25'0 0.0
2017-Aug-20 07:29N 48°41' W 123°25'0 0.0
2017-Aug-20 06:59N 48°41' W 123°25'0 0.0
2017-Aug-20 06:23N 48°41' W 123°25'0 0.0
2017-Aug-20 05:59N 48°41' W 123°25'0 0.0
2017-Aug-20 05:30N 48°41' W 123°25'611.6
2017-Aug-20 05:00N 48°47' W 123°21'816.6
2017-Aug-20 04:31N 48°54' W 123°16'816.3
2017-Aug-20 04:00N 49°00' W 123°08'0 0.0
2017-Aug-20 03:31N 49°00' W 123°08'816.2
2017-Aug-20 03:01N 48°54' W 123°16'612.2
2017-Aug-20 02:30N 48°49' W 123°20'815.6
2017-Aug-20 02:00N 48°41' W 123°25'0 0.5
2017-Aug-20 01:30N 48°41' W 123°24'917.0
2017-Aug-20 01:01N 48°50' W 123°20'816.9
2017-Aug-20 00:31N 48°57' W 123°13'510.3
2017-Aug-20 00:00N 49°00' W 123°08'1 2.2
2017-Aug-19 23:31N 48°59' W 123°09'1019.7
2017-Aug-19 23:01N 48°52' W 123°18'815.7
2017-Aug-19 22:30N 48°44' W 123°21'4 7.6
2017-Aug-19 22:00N 48°41' W 123°25'3 6.6
2017-Aug-19 21:30N 48°43' W 123°21'816.5
2017-Aug-19 21:00N 48°52' W 123°20'714.8
2017-Aug-19 20:30N 48°57' W 123°13'5 9.0
2017-Aug-19 20:00N 49°00' W 123°08'1 1.8
2017-Aug-19 19:31N 48°60' W 123°09'1019.8
2017-Aug-19 19:01N 48°52' W 123°18'916.8
2017-Aug-19 18:30N 48°44' W 123°21'3 7.0
2017-Aug-19 18:01N 48°41' W 123°25'2 3.3
2017-Aug-19 17:31N 48°42' W 123°22'1019.0
2017-Aug-19 17:00N 48°51' W 123°21'815.2
2017-Aug-19 16:30N 48°57' W 123°13'510.2
2017-Aug-19 16:01N 49°00' W 123°08'0 0.2
2017-Aug-19 15:30N 49°00' W 123°08'917.4
2017-Aug-19 15:00N 48°54' W 123°16'1313.4
2017-Aug-19 14:01N 48°41' W 123°25'0 0.0
2017-Aug-19 13:30N 48°41' W 123°25'0 0.0
2017-Aug-19 09:22N 48°41' W 123°25'0 0.0
2017-Aug-19 08:58N 48°41' W 123°25'0 0.0
2017-Aug-19 08:28N 48°41' W 123°25'0 0.0
2017-Aug-19 06:04N 48°41' W 123°25'0 0.6
2017-Aug-19 06:00N 48°41' W 123°25'815.3
2017-Aug-19 05:30N 48°48' W 123°21'816.2
2017-Aug-19 05:00N 48°56' W 123°15'713.1
2017-Aug-19 04:30N 49°00' W 123°08'0 0.0
2017-Aug-19 04:01N 49°00' W 123°08'815.8
2017-Aug-19 03:30N 48°54' W 123°15'713.2
2017-Aug-19 03:00N 48°48' W 123°20'714.9
2017-Aug-19 02:30N 48°41' W 123°25'0 0.0
2017-Aug-19 02:00N 48°41' W 123°25'611.6
2017-Aug-19 01:31N 48°46' W 123°21'714.7
2017-Aug-19 01:00N 48°53' W 123°18'918.4
2017-Aug-19 00:31N 49°00' W 123°08'0 0.3
2017-Aug-19 00:00N 49°00' W 123°08'3 6.4
2017-Aug-18 23:30N 48°58' W 123°11'917.1
2017-Aug-18 23:00N 48°52' W 123°20'816.0
2017-Aug-18 22:30N 48°44' W 123°24'3 5.4
2017-Aug-18 22:00N 48°41' W 123°25'2 4.6
2017-Aug-18 21:30N 48°42' W 123°21'918.6
2017-Aug-18 21:00N 48°51' W 123°21'917.0
2017-Aug-18 20:30N 48°58' W 123°13'4 7.9
2017-Aug-18 20:00N 49°00' W 123°08'1 2.6
2017-Aug-18 19:30N 48°59' W 123°09'1019.9
2017-Aug-18 19:01N 48°52' W 123°18'815.4
2017-Aug-18 18:30N 48°44' W 123°21'4 7.5
2017-Aug-18 18:00N 48°41' W 123°25'2 4.2
2017-Aug-18 17:30N 48°42' W 123°22'918.5
2017-Aug-18 17:01N 48°51' W 123°21'816.6
2017-Aug-18 16:30N 48°58' W 123°12'4 8.2
2017-Aug-18 16:00N 49°00' W 123°08'2 4.0
2017-Aug-18 15:31N 48°59' W 123°10'1019.4
2017-Aug-18 15:00N 48°51' W 123°20'816.1
2017-Aug-18 14:31N 48°44' W 123°24'3 2.7
2017-Aug-18 13:30N 48°41' W 123°25'0 0.0
2017-Aug-18 12:59N 48°41' W 123°25'0 0.0
2017-Aug-18 12:29N 48°41' W 123°25'0 0.0
2017-Aug-18 11:47N 48°41' W 123°25'0 0.0
2017-Aug-18 09:47N 48°41' W 123°25'0 0.0
2017-Aug-18 09:29N 48°41' W 123°25'0 0.0
2017-Aug-18 08:59N 48°41' W 123°25'0 0.0
2017-Aug-18 08:29N 48°41' W 123°25'0 0.0
2017-Aug-18 07:17N 48°41' W 123°25'0 0.0
2017-Aug-18 06:56N 48°41' W 123°25'0 0.0
2017-Aug-18 06:29N 48°41' W 123°25'0 0.0
2017-Aug-18 05:59N 48°41' W 123°25'2 4.4
2017-Aug-18 05:30N 48°42' W 123°22'917.8
2017-Aug-18 05:00N 48°51' W 123°21'917.2
2017-Aug-18 04:30N 48°57' W 123°12'4 8.3
2017-Aug-18 04:00N 49°00' W 123°08'5 9.2
2017-Aug-18 03:31N 48°56' W 123°11'917.4
2017-Aug-18 03:00N 48°51' W 123°21'816.0
2017-Aug-18 02:30N 48°43' W 123°26'2 3.8
2017-Aug-18 02:01N 48°41' W 123°25'3 6.7
2017-Aug-18 01:31N 48°44' W 123°21'816.2
2017-Aug-18 01:00N 48°52' W 123°21'918.6
2017-Aug-18 00:30N 48°59' W 123°11'3 5.4
2017-Aug-18 00:00N 49°00' W 123°08'2 3.8
2017-Aug-17 23:30N 48°59' W 123°10'1019.2
2017-Aug-17 23:01N 48°51' W 123°19'815.3
2017-Aug-17 22:30N 48°44' W 123°24'3 6.1
2017-Aug-17 22:00N 48°41' W 123°25'2 4.0
2017-Aug-17 21:30N 48°42' W 123°22'918.2
2017-Aug-17 21:00N 48°51' W 123°21'917.9
2017-Aug-17 20:31N 48°58' W 123°12'4 7.9
2017-Aug-17 20:00N 49°00' W 123°08'1 1.8
2017-Aug-17 19:31N 48°60' W 123°09'1020.1
2017-Aug-17 19:01N 48°52' W 123°18'612.1
2017-Aug-17 18:31N 48°46' W 123°21'510.7
2017-Aug-17 18:00N 48°41' W 123°25'1 2.2
2017-Aug-17 17:31N 48°42' W 123°23'917.2
2017-Aug-17 17:01N 48°50' W 123°21'612.6
2017-Aug-17 16:31N 48°55' W 123°16'714.1
2017-Aug-17 16:00N 49°00' W 123°08'0 0.0
2017-Aug-17 15:31N 49°00' W 123°08'714.7
2017-Aug-17 15:00N 48°55' W 123°15'714.2
2017-Aug-17 14:30N 48°48' W 123°20'815.2
2017-Aug-17 14:00N 48°41' W 123°25'0 0.1
2017-Aug-17 13:30N 48°41' W 123°25'0 0.0
2017-Aug-17 09:55N 48°41' W 123°25'0 0.0
2017-Aug-17 09:07N 48°41' W 123°25'0 0.0
2017-Aug-17 08:55N 48°41' W 123°25'0 0.0
2017-Aug-17 08:19N 48°41' W 123°25'0 0.0
2017-Aug-17 07:55N 48°41' W 123°25'0 0.0
2017-Aug-17 07:07N 48°41' W 123°25'0 0.0
2017-Aug-17 05:43N 48°41' W 123°25'0 0.6
2017-Aug-17 05:31N 48°41' W 123°25'713.1
2017-Aug-17 05:01N 48°48' W 123°21'815.4
2017-Aug-17 04:30N 48°55' W 123°16'815.5
2017-Aug-17 04:00N 49°00' W 123°08'0 0.2
2017-Aug-17 03:30N 49°00' W 123°08'816.5
2017-Aug-17 03:00N 48°54' W 123°16'713.6
2017-Aug-17 02:30N 48°48' W 123°20'713.5
2017-Aug-17 02:00N 48°41' W 123°25'0 0.2
2017-Aug-17 01:30N 48°41' W 123°25'815.7
2017-Aug-17 01:00N 48°49' W 123°20'613.0
2017-Aug-17 00:31N 48°55' W 123°16'815.6
2017-Aug-17 00:00N 49°00' W 123°08'0 0.3
2017-Aug-16 23:31N 49°00' W 123°08'918.5
2017-Aug-16 23:00N 48°53' W 123°17'612.4
2017-Aug-16 22:30N 48°47' W 123°20'613.1
2017-Aug-16 22:00N 48°41' W 123°25'0 0.0
2017-Aug-16 21:30N 48°41' W 123°25'714.1
2017-Aug-16 21:00N 48°48' W 123°20'815.6
2017-Aug-16 20:30N 48°55' W 123°16'714.9
2017-Aug-16 20:00N 49°00' W 123°08'0 0.3
2017-Aug-16 19:30N 49°00' W 123°08'918.7
2017-Aug-16 19:00N 48°53' W 123°17'713.6
2017-Aug-16 18:30N 48°47' W 123°21'611.8
2017-Aug-16 18:00N 48°41' W 123°25'1 2.9
2017-Aug-16 17:30N 48°42' W 123°23'917.3
2017-Aug-16 17:00N 48°50' W 123°21'611.7
2017-Aug-16 16:30N 48°55' W 123°16'714.8
2017-Aug-16 16:00N 49°00' W 123°08'0 0.0
2017-Aug-16 15:30N 49°00' W 123°08'815.8
2017-Aug-16 15:00N 48°54' W 123°16'714.2
2017-Aug-16 14:30N 48°48' W 123°20'714.2
2017-Aug-16 14:01N 48°41' W 123°25'0 0.0
2017-Aug-16 13:10N 48°41' W 123°25'0 0.0
2017-Aug-16 13:01N 48°41' W 123°25'0 0.0
2017-Aug-16 12:31N 48°41' W 123°25'0 0.0
2017-Aug-16 11:55N 48°41' W 123°25'0 0.0
2017-Aug-16 11:25N 48°41' W 123°25'0 0.0
2017-Aug-16 10:58N 48°41' W 123°25'0 0.0
2017-Aug-16 10:28N 48°41' W 123°25'0 0.0
2017-Aug-16 09:55N 48°41' W 123°25'0 0.0
2017-Aug-16 09:25N 48°41' W 123°25'0 0.0
2017-Aug-16 08:37N 48°41' W 123°25'0 0.0
2017-Aug-16 08:13N 48°41' W 123°25'0 0.0
2017-Aug-16 07:43N 48°41' W 123°25'0 0.0
2017-Aug-16 07:07N 48°41' W 123°25'0 0.0
2017-Aug-16 06:55N 48°41' W 123°25'0 0.0
2017-Aug-16 06:19N 48°41' W 123°25'0 0.0
2017-Aug-16 05:49N 48°41' W 123°25'0 0.2
2017-Aug-16 05:31N 48°41' W 123°25'815.4
2017-Aug-16 05:00N 48°49' W 123°20'815.0
2017-Aug-16 04:30N 48°55' W 123°15'713.7
2017-Aug-16 04:00N 49°00' W 123°08'0 0.2
2017-Aug-16 03:30N 49°00' W 123°08'816.1
2017-Aug-16 03:00N 48°54' W 123°16'714.2
2017-Aug-16 02:30N 48°48' W 123°21'713.7
2017-Aug-16 02:01N 48°41' W 123°25'0 1.0
2017-Aug-16 01:31N 48°42' W 123°24'816.9
2017-Aug-16 01:01N 48°50' W 123°21'816.4
2017-Aug-16 00:30N 48°57' W 123°15'611.4
2017-Aug-16 00:00N 49°00' W 123°08'1 2.0
2017-Aug-15 23:30N 48°60' W 123°09'1019.6
2017-Aug-15 23:00N 48°52' W 123°18'714.5
2017-Aug-15 22:30N 48°45' W 123°23'4 8.2
2017-Aug-15 22:00N 48°41' W 123°25'2 4.7
2017-Aug-15 21:30N 48°42' W 123°21'1019.4
2017-Aug-15 21:00N 48°52' W 123°20'918.8
2017-Aug-15 20:31N 48°59' W 123°11'3 5.0
2017-Aug-15 20:01N 49°00' W 123°08'3 5.4
2017-Aug-15 19:30N 48°58' W 123°10'918.7
2017-Aug-15 19:00N 48°52' W 123°20'918.2
2017-Aug-15 18:30N 48°42' W 123°22'2 4.7
2017-Aug-15 18:00N 48°41' W 123°25'1 1.6
2017-Aug-15 17:31N 48°42' W 123°24'917.3
2017-Aug-15 16:59N 48°50' W 123°21'713.9
2017-Aug-15 16:30N 48°56' W 123°15'713.1
2017-Aug-15 16:00N 49°00' W 123°08'0 0.0
2017-Aug-15 15:30N 49°00' W 123°08'815.6
2017-Aug-15 15:00N 48°54' W 123°15'714.6
2017-Aug-15 14:30N 48°48' W 123°21'714.0
2017-Aug-15 14:01N 48°41' W 123°25'0 0.0
2017-Aug-15 13:30N 48°41' W 123°25'0 0.0
2017-Aug-15 12:58N 48°41' W 123°25'0 0.0
2017-Aug-15 12:16N 48°41' W 123°25'0 0.0
2017-Aug-15 11:58N 48°41' W 123°25'0 0.0
2017-Aug-15 10:58N 48°41' W 123°25'0 0.0
2017-Aug-15 10:28N 48°41' W 123°25'0 0.0
2017-Aug-15 09:58N 48°41' W 123°25'0 0.0
2017-Aug-15 09:28N 48°41' W 123°25'0 0.0
2017-Aug-15 06:28N 48°41' W 123°25'0 0.0
2017-Aug-15 05:58N 48°41' W 123°25'2 4.1
2017-Aug-15 05:30N 48°42' W 123°22'918.3
2017-Aug-15 05:00N 48°51' W 123°21'917.7
2017-Aug-15 04:30N 48°58' W 123°12'4 7.8
2017-Aug-15 04:00N 49°00' W 123°08'3 5.9
2017-Aug-15 03:30N 48°58' W 123°10'918.7
2017-Aug-15 03:00N 48°52' W 123°21'1019.0
2017-Aug-15 02:30N 48°42' W 123°22'2 3.9
2017-Aug-15 02:00N 48°41' W 123°25'3 5.3
2017-Aug-15 01:31N 48°43' W 123°21'918.0
2017-Aug-15 01:00N 48°52' W 123°20'917.5
2017-Aug-15 00:30N 48°58' W 123°11'3 6.2
2017-Aug-15 00:00N 49°00' W 123°08'1 1.7
2017-Aug-14 23:30N 48°60' W 123°08'817.0
2017-Aug-14 23:00N 48°53' W 123°17'714.3
2017-Aug-14 22:30N 48°47' W 123°21'611.4
2017-Aug-14 22:00N 48°41' W 123°25'0 0.0
2017-Aug-14 21:30N 48°41' W 123°25'714.3
2017-Aug-14 21:00N 48°48' W 123°20'816.2
2017-Aug-14 20:30N 48°55' W 123°15'713.8
2017-Aug-14 20:00N 49°00' W 123°08'0 0.1
2017-Aug-14 19:30N 49°00' W 123°08'815.5
2017-Aug-14 19:01N 48°54' W 123°15'714.0
2017-Aug-14 18:30N 48°48' W 123°21'714.3
2017-Aug-14 18:00N 48°41' W 123°25'0 0.0
2017-Aug-14 17:30N 48°41' W 123°25'713.4
2017-Aug-14 17:00N 48°48' W 123°21'815.4
2017-Aug-14 16:30N 48°55' W 123°16'815.5
2017-Aug-14 16:01N 49°00' W 123°08'0 0.0
2017-Aug-14 15:30N 49°00' W 123°08'714.7
2017-Aug-14 15:01N 48°55' W 123°15'815.6
2017-Aug-14 14:31N 48°48' W 123°21'713.8
2017-Aug-14 14:00N 48°41' W 123°25'0 0.0
2017-Aug-14 13:27N 48°41' W 123°25'0 0.0
2017-Aug-14 12:59N 48°41' W 123°25'0 0.0
2017-Aug-14 12:29N 48°41' W 123°25'0 0.0
2017-Aug-14 11:59N 48°41' W 123°25'0 0.0
2017-Aug-14 11:29N 48°41' W 123°25'0 0.0
2017-Aug-14 10:59N 48°41' W 123°25'0 0.0
2017-Aug-14 10:29N 48°41' W 123°25'0 0.0
2017-Aug-14 06:11N 48°41' W 123°25'0 0.0
2017-Aug-14 05:59N 48°41' W 123°25'510.7
2017-Aug-14 05:31N 48°46' W 123°21'816.9
2017-Aug-14 05:00N 48°54' W 123°17'917.2
2017-Aug-14 04:30N 49°00' W 123°08'0 0.3
2017-Aug-14 03:59N 49°00' W 123°08'611.5
2017-Aug-14 03:30N 48°56' W 123°13'815.7
2017-Aug-14 03:00N 48°50' W 123°21'817.2
2017-Aug-14 02:30N 48°42' W 123°25'1 1.2
2017-Aug-14 02:00N 48°41' W 123°25'3 6.4
2017-Aug-14 01:30N 48°43' W 123°21'816.7
2017-Aug-14 01:00N 48°52' W 123°20'918.1
2017-Aug-14 00:30N 48°59' W 123°11'3 5.1
2017-Aug-14 00:00N 49°00' W 123°08'1 1.9
2017-Aug-13 23:30N 48°60' W 123°09'1019.7
2017-Aug-13 23:00N 48°52' W 123°18'815.6
2017-Aug-13 22:30N 48°45' W 123°23'4 7.3
2017-Aug-13 22:00N 48°41' W 123°25'0 0.9
2017-Aug-13 21:30N 48°42' W 123°24'917.9
2017-Aug-13 21:01N 48°50' W 123°21'918.4
2017-Aug-13 20:30N 48°57' W 123°12'4 8.2
2017-Aug-13 20:00N 49°00' W 123°08'2 4.4
2017-Aug-13 19:30N 48°58' W 123°10'918.5
2017-Aug-13 19:01N 48°51' W 123°19'713.6
2017-Aug-13 18:30N 48°45' W 123°22'4 8.1
2017-Aug-13 18:00N 48°41' W 123°25'1 1.2
2017-Aug-13 17:30N 48°42' W 123°24'917.3
2017-Aug-13 17:00N 48°50' W 123°21'816.6
2017-Aug-13 16:30N 48°57' W 123°14'5 9.6
2017-Aug-13 15:58N 49°00' W 123°08'1 2.9
2017-Aug-13 15:30N 48°59' W 123°09'714.6
2017-Aug-13 15:01N 48°54' W 123°16'714.1
2017-Aug-13 14:31N 48°47' W 123°21'713.0
2017-Aug-13 14:00N 48°41' W 123°25'0 0.0
2017-Aug-13 13:30N 48°41' W 123°25'0 0.0
2017-Aug-13 13:00N 48°41' W 123°25'0 0.0
2017-Aug-13 12:30N 48°41' W 123°25'0 0.0
2017-Aug-13 12:00N 48°41' W 123°25'0 0.0
2017-Aug-13 11:30N 48°41' W 123°25'0 0.0
2017-Aug-13 11:00N 48°41' W 123°25'0 0.0
2017-Aug-13 10:30N 48°41' W 123°25'0 0.0
2017-Aug-13 10:00N 48°41' W 123°25'0 0.0
2017-Aug-13 09:24N 48°41' W 123°25'0 0.0
2017-Aug-13 08:54N 48°41' W 123°25'0 0.0
2017-Aug-13 08:24N 48°41' W 123°25'0 0.0
2017-Aug-13 06:06N 48°41' W 123°25'0 0.0
2017-Aug-13 05:54N 48°41' W 123°25'0 0.0
2017-Aug-13 05:30N 48°41' W 123°25'611.8
2017-Aug-13 05:00N 48°47' W 123°21'816.5
2017-Aug-13 04:30N 48°54' W 123°17'816.4
2017-Aug-13 04:01N 49°00' W 123°08'0 0.2
2017-Aug-13 03:30N 49°00' W 123°08'815.5
2017-Aug-13 03:00N 48°54' W 123°15'816.1
2017-Aug-13 02:30N 48°47' W 123°21'612.5
2017-Aug-13 02:00N 48°41' W 123°25'1 2.6
2017-Aug-13 01:30N 48°42' W 123°23'917.4
2017-Aug-13 01:00N 48°50' W 123°21'714.1
2017-Aug-13 00:30N 48°56' W 123°15'612.5
2017-Aug-13 00:00N 49°00' W 123°08'0 0.0
2017-Aug-12 23:31N 49°00' W 123°08'714.8
2017-Aug-12 23:00N 48°55' W 123°15'815.7
2017-Aug-12 22:30N 48°48' W 123°21'713.6
2017-Aug-12 22:00N 48°41' W 123°25'0 0.2
2017-Aug-12 21:30N 48°41' W 123°25'815.7
2017-Aug-12 21:00N 48°49' W 123°21'816.3
2017-Aug-12 20:30N 48°56' W 123°14'612.3
2017-Aug-12 20:00N 49°00' W 123°08'0 0.0
2017-Aug-12 19:30N 49°00' W 123°08'816.5
2017-Aug-12 19:00N 48°54' W 123°16'714.3
2017-Aug-12 18:30N 48°47' W 123°21'713.3
2017-Aug-12 18:01N 48°41' W 123°25'0 0.0
2017-Aug-12 17:31N 48°41' W 123°25'713.1
2017-Aug-12 17:00N 48°47' W 123°20'815.8
2017-Aug-12 16:31N 48°55' W 123°16'815.6
2017-Aug-12 16:01N 49°00' W 123°08'0 0.0
2017-Aug-12 15:30N 49°00' W 123°08'816.0
2017-Aug-12 15:00N 48°54' W 123°16'713.7
2017-Aug-12 14:30N 48°48' W 123°21'714.4
2017-Aug-12 14:01N 48°41' W 123°25'0 0.1
2017-Aug-12 13:31N 48°41' W 123°25'0 0.0
2017-Aug-12 13:01N 48°41' W 123°25'0 0.0
2017-Aug-12 12:31N 48°41' W 123°25'0 0.0
2017-Aug-12 11:59N 48°41' W 123°25'0 0.0
2017-Aug-12 11:29N 48°41' W 123°25'0 0.0
2017-Aug-12 10:59N 48°41' W 123°25'0 0.0
2017-Aug-12 10:26N 48°41' W 123°25'0 0.0
2017-Aug-12 09:59N 48°41' W 123°25'0 0.0
2017-Aug-12 09:29N 48°41' W 123°25'0 0.0
2017-Aug-12 08:59N 48°41' W 123°25'0 0.0
2017-Aug-12 08:29N 48°41' W 123°25'0 0.0
2017-Aug-12 07:59N 48°41' W 123°25'0 0.0
2017-Aug-12 07:29N 48°41' W 123°25'0 0.0
2017-Aug-12 06:59N 48°41' W 123°25'0 0.0
2017-Aug-12 06:29N 48°41' W 123°25'0 0.0
2017-Aug-12 05:59N 48°41' W 123°25'1 2.8
2017-Aug-12 05:30N 48°42' W 123°23'918.9
2017-Aug-12 05:00N 48°51' W 123°21'918.6
2017-Aug-12 04:30N 48°58' W 123°12'4 7.1
2017-Aug-12 04:00N 49°00' W 123°08'2 3.6
2017-Aug-12 03:31N 48°59' W 123°09'918.6
2017-Aug-12 03:00N 48°52' W 123°19'816.8
2017-Aug-12 02:30N 48°44' W 123°24'3 5.6
2017-Aug-12 02:00N 48°41' W 123°25'2 4.5
2017-Aug-12 01:30N 48°42' W 123°22'918.2
2017-Aug-12 01:00N 48°51' W 123°21'816.7
2017-Aug-12 00:31N 48°57' W 123°12'4 8.1
2017-Aug-12 00:00N 49°00' W 123°08'1 1.6
2017-Aug-11 23:30N 48°60' W 123°09'1020.1
2017-Aug-11 23:00N 48°52' W 123°18'816.4
2017-Aug-11 22:30N 48°44' W 123°24'3 6.3
2017-Aug-11 22:00N 48°41' W 123°25'1 2.3
2017-Aug-11 21:31N 48°42' W 123°23'918.3
2017-Aug-11 21:00N 48°51' W 123°21'917.3
2017-Aug-11 20:30N 48°57' W 123°13'4 8.9
2017-Aug-11 20:00N 49°00' W 123°08'1 2.4
2017-Aug-11 19:30N 48°59' W 123°09'918.3
2017-Aug-11 19:00N 48°52' W 123°18'611.6
2017-Aug-11 18:30N 48°47' W 123°21'612.3
2017-Aug-11 18:00N 48°41' W 123°25'0 0.3
2017-Aug-11 17:30N 48°41' W 123°25'816.4
2017-Aug-11 17:00N 48°49' W 123°20'713.7
2017-Aug-11 16:30N 48°55' W 123°15'714.1
2017-Aug-11 16:01N 49°00' W 123°08'0 0.0
2017-Aug-11 15:30N 49°00' W 123°08'815.8
2017-Aug-11 15:00N 48°54' W 123°16'1414.3
2017-Aug-11 14:00N 48°41' W 123°25'0 0.0
2017-Aug-11 13:30N 48°41' W 123°25'0 0.0
2017-Aug-11 12:58N 48°41' W 123°25'0 0.0
2017-Aug-11 12:28N 48°41' W 123°25'0 0.0
2017-Aug-11 11:58N 48°41' W 123°25'0 0.0
2017-Aug-11 11:28N 48°41' W 123°25'0 0.0
2017-Aug-11 10:58N 48°41' W 123°25'0 0.0
2017-Aug-11 10:28N 48°41' W 123°25'0 0.0
2017-Aug-11 09:58N 48°41' W 123°25'0 0.0
2017-Aug-11 09:28N 48°41' W 123°25'0 0.0
2017-Aug-11 08:58N 48°41' W 123°25'0 0.0
2017-Aug-11 08:28N 48°41' W 123°25'0 0.0
2017-Aug-11 07:58N 48°41' W 123°25'0 0.0
2017-Aug-11 07:28N 48°41' W 123°25'0 0.0
2017-Aug-11 06:55N 48°41' W 123°25'0 0.0
2017-Aug-11 06:28N 48°41' W 123°25'0 0.0
2017-Aug-11 05:58N 48°41' W 123°25'0 0.0
2017-Aug-11 05:30N 48°41' W 123°25'612.2
2017-Aug-11 05:00N 48°47' W 123°20'917.7
2017-Aug-11 04:30N 48°55' W 123°16'714.9
2017-Aug-11 04:00N 49°00' W 123°08'0 0.3
2017-Aug-11 03:30N 49°00' W 123°08'816.7
2017-Aug-11 03:00N 48°54' W 123°16'815.5
2017-Aug-11 02:30N 48°47' W 123°20'611.8
2017-Aug-11 02:00N 48°41' W 123°25'1 1.0
2017-Aug-11 01:30N 48°42' W 123°24'816.4
2017-Aug-11 01:00N 48°49' W 123°20'714.0
2017-Aug-11 00:30N 48°56' W 123°15'713.0
2017-Aug-10 23:59N 49°00' W 123°08'0 0.3
2017-Aug-10 23:31N 49°00' W 123°08'918.9
2017-Aug-10 23:01N 48°53' W 123°17'817.0
2017-Aug-10 22:31N 48°45' W 123°21'4 8.7
2017-Aug-10 22:00N 48°41' W 123°25'1 2.9
2017-Aug-10 21:31N 48°42' W 123°23'918.6
2017-Aug-10 21:01N 48°51' W 123°21'816.9
2017-Aug-10 20:31N 48°57' W 123°13'5 8.9
2017-Aug-10 20:00N 49°00' W 123°08'1 1.6
2017-Aug-10 19:31N 48°60' W 123°09'1019.5
2017-Aug-10 19:00N 48°52' W 123°18'613.0
2017-Aug-10 18:31N 48°46' W 123°21'510.3
2017-Aug-10 18:00N 48°41' W 123°25'1 1.1
2017-Aug-10 17:31N 48°42' W 123°24'816.5
2017-Aug-10 17:00N 48°50' W 123°21'713.9
2017-Aug-10 16:30N 48°56' W 123°15'713.8
2017-Aug-10 16:01N 49°00' W 123°08'0 0.0
2017-Aug-10 15:30N 49°00' W 123°08'815.2
2017-Aug-10 15:00N 48°54' W 123°15'714.4
2017-Aug-10 14:30N 48°48' W 123°21'714.6
2017-Aug-10 14:00N 48°41' W 123°25'0 0.0
2017-Aug-10 13:31N 48°41' W 123°25'  
Track history (hours):
 
Tides and Currents Weather Stations Pressure Air Temp Water Temp Dewpoint Dewpoint Depression Visibility Wind Speed Wind Dir Waves Ship Positions

Spirit Of Vi

Last reported at 2017-Aug-20 13:25 UTC. Time now 2017-Aug-20 13:40 UTC.
Position N 48°41' W 123°25'.

Length 168 m; draft 5 m.

Type: Ship. MMSI: 316001269.

Date/timePositionNaut miles runAvg speedWind from/ knotsBaromVisibWave heightAir tempDewpointWater temp
2017-Aug-20 13:25N 48°41' W 123°25'0 0.0
2017-Aug-20 12:58N 48°41' W 123°25'0 0.0
2017-Aug-20 12:29N 48°41' W 123°25'0 0.0
2017-Aug-20 11:17N 48°41' W 123°25'0 0.0
2017-Aug-20 10:53N 48°41' W 123°25'0 0.0
2017-Aug-20 10:29N 48°41' W 123°25'0 0.0
2017-Aug-20 09:11N 48°41' W 123°25'0 0.0
2017-Aug-20 08:47N 48°41' W 123°25'0 0.0
2017-Aug-20 08:29N 48°41' W 123°25'0 0.0
2017-Aug-20 07:59N 48°41' W 123°25'0 0.0
2017-Aug-20 07:29N 48°41' W 123°25'0 0.0
2017-Aug-20 06:59N 48°41' W 123°25'0 0.0
2017-Aug-20 06:23N 48°41' W 123°25'0 0.0
2017-Aug-20 05:59N 48°41' W 123°25'0 0.0
2017-Aug-20 05:30N 48°41' W 123°25'611.6
2017-Aug-20 05:00N 48°47' W 123°21'816.6
2017-Aug-20 04:31N 48°54' W 123°16'816.3
2017-Aug-20 04:00N 49°00' W 123°08'0 0.0
2017-Aug-20 03:31N 49°00' W 123°08'816.2
2017-Aug-20 03:01N 48°54' W 123°16'612.2
2017-Aug-20 02:30N 48°49' W 123°20'815.6
2017-Aug-20 02:00N 48°41' W 123°25'0 0.5
2017-Aug-20 01:30N 48°41' W 123°24'917.0
2017-Aug-20 01:01N 48°50' W 123°20'816.9
2017-Aug-20 00:31N 48°57' W 123°13'510.3
2017-Aug-20 00:00N 49°00' W 123°08'1 2.2
2017-Aug-19 23:31N 48°59' W 123°09'1019.7
2017-Aug-19 23:01N 48°52' W 123°18'815.7
2017-Aug-19 22:30N 48°44' W 123°21'4 7.6
2017-Aug-19 22:00N 48°41' W 123°25'3 6.6
2017-Aug-19 21:30N 48°43' W 123°21'816.5
2017-Aug-19 21:00N 48°52' W 123°20'714.8
2017-Aug-19 20:30N 48°57' W 123°13'5 9.0
2017-Aug-19 20:00N 49°00' W 123°08'1 1.8
2017-Aug-19 19:31N 48°60' W 123°09'1019.8
2017-Aug-19 19:01N 48°52' W 123°18'916.8
2017-Aug-19 18:30N 48°44' W 123°21'3 7.0
2017-Aug-19 18:01N 48°41' W 123°25'2 3.3
2017-Aug-19 17:31N 48°42' W 123°22'1019.0
2017-Aug-19 17:00N 48°51' W 123°21'815.2
2017-Aug-19 16:30N 48°57' W 123°13'510.2
2017-Aug-19 16:01N 49°00' W 123°08'0 0.2
2017-Aug-19 15:30N 49°00' W 123°08'917.4
2017-Aug-19 15:00N 48°54' W 123°16'1313.4
2017-Aug-19 14:01N 48°41' W 123°25'0 0.0
2017-Aug-19 13:30N 48°41' W 123°25'0 0.0
2017-Aug-19 09:22N 48°41' W 123°25'0 0.0
2017-Aug-19 08:58N 48°41' W 123°25'0 0.0
2017-Aug-19 08:28N 48°41' W 123°25'0 0.0
2017-Aug-19 06:04N 48°41' W 123°25'0 0.6
2017-Aug-19 06:00N 48°41' W 123°25'815.3
2017-Aug-19 05:30N 48°48' W 123°21'816.2
2017-Aug-19 05:00N 48°56' W 123°15'713.1
2017-Aug-19 04:30N 49°00' W 123°08'0 0.0
2017-Aug-19 04:01N 49°00' W 123°08'815.8
2017-Aug-19 03:30N 48°54' W 123°15'713.2
2017-Aug-19 03:00N 48°48' W 123°20'714.9
2017-Aug-19 02:30N 48°41' W 123°25'0 0.0
2017-Aug-19 02:00N 48°41' W 123°25'611.6
2017-Aug-19 01:31N 48°46' W 123°21'714.7
2017-Aug-19 01:00N 48°53' W 123°18'918.4
2017-Aug-19 00:31N 49°00' W 123°08'0 0.3
2017-Aug-19 00:00N 49°00' W 123°08'3 6.4
2017-Aug-18 23:30N 48°58' W 123°11'917.1
2017-Aug-18 23:00N 48°52' W 123°20'816.0
2017-Aug-18 22:30N 48°44' W 123°24'3 5.4
2017-Aug-18 22:00N 48°41' W 123°25'2 4.6
2017-Aug-18 21:30N 48°42' W 123°21'918.6
2017-Aug-18 21:00N 48°51' W 123°21'917.0
2017-Aug-18 20:30N 48°58' W 123°13'4 7.9
2017-Aug-18 20:00N 49°00' W 123°08'1 2.6
2017-Aug-18 19:30N 48°59' W 123°09'1019.9
2017-Aug-18 19:01N 48°52' W 123°18'815.4
2017-Aug-18 18:30N 48°44' W 123°21'4 7.5
2017-Aug-18 18:00N 48°41' W 123°25'2 4.2
2017-Aug-18 17:30N 48°42' W 123°22'918.5
2017-Aug-18 17:01N 48°51' W 123°21'816.6
2017-Aug-18 16:30N 48°58' W 123°12'4 8.2
2017-Aug-18 16:00N 49°00' W 123°08'2 4.0
2017-Aug-18 15:31N 48°59' W 123°10'1019.4
2017-Aug-18 15:00N 48°51' W 123°20'816.1
2017-Aug-18 14:31N 48°44' W 123°24'3 2.7
2017-Aug-18 13:30N 48°41' W 123°25'0 0.0
2017-Aug-18 12:59N 48°41' W 123°25'0 0.0
2017-Aug-18 12:29N 48°41' W 123°25'0 0.0
2017-Aug-18 11:47N 48°41' W 123°25'0 0.0
2017-Aug-18 09:47N 48°41' W 123°25'0 0.0
2017-Aug-18 09:29N 48°41' W 123°25'0 0.0
2017-Aug-18 08:59N 48°41' W 123°25'0 0.0
2017-Aug-18 08:29N 48°41' W 123°25'0 0.0
2017-Aug-18 07:17N 48°41' W 123°25'0 0.0
2017-Aug-18 06:56N 48°41' W 123°25'0 0.0
2017-Aug-18 06:29N 48°41' W 123°25'0 0.0
2017-Aug-18 05:59N 48°41' W 123°25'2 4.4
2017-Aug-18 05:30N 48°42' W 123°22'917.8
2017-Aug-18 05:00N 48°51' W 123°21'917.2
2017-Aug-18 04:30N 48°57' W 123°12'4 8.3
2017-Aug-18 04:00N 49°00' W 123°08'5 9.2
2017-Aug-18 03:31N 48°56' W 123°11'917.4
2017-Aug-18 03:00N 48°51' W 123°21'816.0
2017-Aug-18 02:30N 48°43' W 123°26'2 3.8
2017-Aug-18 02:01N 48°41' W 123°25'3 6.7
2017-Aug-18 01:31N 48°44' W 123°21'816.2
2017-Aug-18 01:00N 48°52' W 123°21'918.6
2017-Aug-18 00:30N 48°59' W 123°11'3 5.4
2017-Aug-18 00:00N 49°00' W 123°08'2 3.8
2017-Aug-17 23:30N 48°59' W 123°10'1019.2
2017-Aug-17 23:01N 48°51' W 123°19'815.3
2017-Aug-17 22:30N 48°44' W 123°24'3 6.1
2017-Aug-17 22:00N 48°41' W 123°25'2 4.0
2017-Aug-17 21:30N 48°42' W 123°22'918.2
2017-Aug-17 21:00N 48°51' W 123°21'917.9
2017-Aug-17 20:31N 48°58' W 123°12'4 7.9
2017-Aug-17 20:00N 49°00' W 123°08'1 1.8
2017-Aug-17 19:31N 48°60' W 123°09'1020.1
2017-Aug-17 19:01N 48°52' W 123°18'612.1
2017-Aug-17 18:31N 48°46' W 123°21'510.7
2017-Aug-17 18:00N 48°41' W 123°25'1 2.2
2017-Aug-17 17:31N 48°42' W 123°23'917.2
2017-Aug-17 17:01N 48°50' W 123°21'612.6
2017-Aug-17 16:31N 48°55' W 123°16'714.1
2017-Aug-17 16:00N 49°00' W 123°08'0 0.0
2017-Aug-17 15:31N 49°00' W 123°08'714.7
2017-Aug-17 15:00N 48°55' W 123°15'714.2
2017-Aug-17 14:30N 48°48' W 123°20'815.2
2017-Aug-17 14:00N 48°41' W 123°25'0 0.1
2017-Aug-17 13:30N 48°41' W 123°25'0 0.0
2017-Aug-17 09:55N 48°41' W 123°25'0 0.0
2017-Aug-17 09:07N 48°41' W 123°25'0 0.0
2017-Aug-17 08:55N 48°41' W 123°25'0 0.0
2017-Aug-17 08:19N 48°41' W 123°25'0 0.0
2017-Aug-17 07:55N 48°41' W 123°25'0 0.0
2017-Aug-17 07:07N 48°41' W 123°25'0 0.0
2017-Aug-17 05:43N 48°41' W 123°25'0 0.6
2017-Aug-17 05:31N 48°41' W 123°25'713.1
2017-Aug-17 05:01N 48°48' W 123°21'815.4
2017-Aug-17 04:30N 48°55' W 123°16'815.5
2017-Aug-17 04:00N 49°00' W 123°08'0 0.2
2017-Aug-17 03:30N 49°00' W 123°08'816.5
2017-Aug-17 03:00N 48°54' W 123°16'713.6
2017-Aug-17 02:30N 48°48' W 123°20'713.5
2017-Aug-17 02:00N 48°41' W 123°25'0 0.2
2017-Aug-17 01:30N 48°41' W 123°25'815.7
2017-Aug-17 01:00N 48°49' W 123°20'613.0
2017-Aug-17 00:31N 48°55' W 123°16'815.6
2017-Aug-17 00:00N 49°00' W 123°08'0 0.3
2017-Aug-16 23:31N 49°00' W 123°08'918.5
2017-Aug-16 23:00N 48°53' W 123°17'612.4
2017-Aug-16 22:30N 48°47' W 123°20'613.1
2017-Aug-16 22:00N 48°41' W 123°25'0 0.0
2017-Aug-16 21:30N 48°41' W 123°25'714.1
2017-Aug-16 21:00N 48°48' W 123°20'815.6
2017-Aug-16 20:30N 48°55' W 123°16'714.9
2017-Aug-16 20:00N 49°00' W 123°08'0 0.3
2017-Aug-16 19:30N 49°00' W 123°08'918.7
2017-Aug-16 19:00N 48°53' W 123°17'713.6
2017-Aug-16 18:30N 48°47' W 123°21'611.8
2017-Aug-16 18:00N 48°41' W 123°25'1 2.9
2017-Aug-16 17:30N 48°42' W 123°23'917.3
2017-Aug-16 17:00N 48°50' W 123°21'611.7
2017-Aug-16 16:30N 48°55' W 123°16'714.8
2017-Aug-16 16:00N 49°00' W 123°08'0 0.0
2017-Aug-16 15:30N 49°00' W 123°08'815.8
2017-Aug-16 15:00N 48°54' W 123°16'714.2
2017-Aug-16 14:30N 48°48' W 123°20'714.2
2017-Aug-16 14:01N 48°41' W 123°25'0 0.0
2017-Aug-16 13:10N 48°41' W 123°25'0 0.0
2017-Aug-16 13:01N 48°41' W 123°25'0 0.0
2017-Aug-16 12:31N 48°41' W 123°25'0 0.0
2017-Aug-16 11:55N 48°41' W 123°25'0 0.0
2017-Aug-16 11:25N 48°41' W 123°25'0 0.0
2017-Aug-16 10:58N 48°41' W 123°25'0 0.0
2017-Aug-16 10:28N 48°41' W 123°25'0 0.0
2017-Aug-16 09:55N 48°41' W 123°25'0 0.0
2017-Aug-16 09:25N 48°41' W 123°25'0 0.0
2017-Aug-16 08:37N 48°41' W 123°25'0 0.0
2017-Aug-16 08:13N 48°41' W 123°25'0 0.0
2017-Aug-16 07:43N 48°41' W 123°25'0 0.0
2017-Aug-16 07:07N 48°41' W 123°25'0 0.0
2017-Aug-16 06:55N 48°41' W 123°25'0 0.0
2017-Aug-16 06:19N 48°41' W 123°25'0 0.0
2017-Aug-16 05:49N 48°41' W 123°25'0 0.2
2017-Aug-16 05:31N 48°41' W 123°25'815.4
2017-Aug-16 05:00N 48°49' W 123°20'815.0
2017-Aug-16 04:30N 48°55' W 123°15'713.7
2017-Aug-16 04:00N 49°00' W 123°08'0 0.2
2017-Aug-16 03:30N 49°00' W 123°08'816.1
2017-Aug-16 03:00N 48°54' W 123°16'714.2
2017-Aug-16 02:30N 48°48' W 123°21'713.7
2017-Aug-16 02:01N 48°41' W 123°25'0 1.0
2017-Aug-16 01:31N 48°42' W 123°24'816.9
2017-Aug-16 01:01N 48°50' W 123°21'816.4
2017-Aug-16 00:30N 48°57' W 123°15'611.4
2017-Aug-16 00:00N 49°00' W 123°08'1 2.0
2017-Aug-15 23:30N 48°60' W 123°09'1019.6
2017-Aug-15 23:00N 48°52' W 123°18'714.5
2017-Aug-15 22:30N 48°45' W 123°23'4 8.2
2017-Aug-15 22:00N 48°41' W 123°25'2 4.7
2017-Aug-15 21:30N 48°42' W 123°21'1019.4
2017-Aug-15 21:00N 48°52' W 123°20'918.8
2017-Aug-15 20:31N 48°59' W 123°11'3 5.0
2017-Aug-15 20:01N 49°00' W 123°08'3 5.4
2017-Aug-15 19:30N 48°58' W 123°10'918.7
2017-Aug-15 19:00N 48°52' W 123°20'918.2
2017-Aug-15 18:30N 48°42' W 123°22'2 4.7
2017-Aug-15 18:00N 48°41' W 123°25'1 1.6
2017-Aug-15 17:31N 48°42' W 123°24'917.3
2017-Aug-15 16:59N 48°50' W 123°21'713.9
2017-Aug-15 16:30N 48°56' W 123°15'713.1
2017-Aug-15 16:00N 49°00' W 123°08'0 0.0
2017-Aug-15 15:30N 49°00' W 123°08'815.6
2017-Aug-15 15:00N 48°54' W 123°15'714.6
2017-Aug-15 14:30N 48°48' W 123°21'714.0
2017-Aug-15 14:01N 48°41' W 123°25'0 0.0
2017-Aug-15 13:30N 48°41' W 123°25'0 0.0
2017-Aug-15 12:58N 48°41' W 123°25'0 0.0
2017-Aug-15 12:16N 48°41' W 123°25'0 0.0
2017-Aug-15 11:58N 48°41' W 123°25'0 0.0
2017-Aug-15 10:58N 48°41' W 123°25'0 0.0
2017-Aug-15 10:28N 48°41' W 123°25'0 0.0
2017-Aug-15 09:58N 48°41' W 123°25'0 0.0
2017-Aug-15 09:28N 48°41' W 123°25'0 0.0
2017-Aug-15 06:28N 48°41' W 123°25'0 0.0
2017-Aug-15 05:58N 48°41' W 123°25'2 4.1
2017-Aug-15 05:30N 48°42' W 123°22'918.3
2017-Aug-15 05:00N 48°51' W 123°21'917.7
2017-Aug-15 04:30N 48°58' W 123°12'4 7.8
2017-Aug-15 04:00N 49°00' W 123°08'3 5.9
2017-Aug-15 03:30N 48°58' W 123°10'918.7
2017-Aug-15 03:00N 48°52' W 123°21'1019.0
2017-Aug-15 02:30N 48°42' W 123°22'2 3.9
2017-Aug-15 02:00N 48°41' W 123°25'3 5.3
2017-Aug-15 01:31N 48°43' W 123°21'918.0
2017-Aug-15 01:00N 48°52' W 123°20'917.5
2017-Aug-15 00:30N 48°58' W 123°11'3 6.2
2017-Aug-15 00:00N 49°00' W 123°08'1 1.7
2017-Aug-14 23:30N 48°60' W 123°08'817.0
2017-Aug-14 23:00N 48°53' W 123°17'714.3
2017-Aug-14 22:30N 48°47' W 123°21'611.4
2017-Aug-14 22:00N 48°41' W 123°25'0 0.0
2017-Aug-14 21:30N 48°41' W 123°25'714.3
2017-Aug-14 21:00N 48°48' W 123°20'816.2
2017-Aug-14 20:30N 48°55' W 123°15'713.8
2017-Aug-14 20:00N 49°00' W 123°08'0 0.1
2017-Aug-14 19:30N 49°00' W 123°08'815.5
2017-Aug-14 19:01N 48°54' W 123°15'714.0
2017-Aug-14 18:30N 48°48' W 123°21'714.3
2017-Aug-14 18:00N 48°41' W 123°25'0 0.0
2017-Aug-14 17:30N 48°41' W 123°25'713.4
2017-Aug-14 17:00N 48°48' W 123°21'815.4
2017-Aug-14 16:30N 48°55' W 123°16'815.5
2017-Aug-14 16:01N 49°00' W 123°08'0 0.0
2017-Aug-14 15:30N 49°00' W 123°08'714.7
2017-Aug-14 15:01N 48°55' W 123°15'815.6
2017-Aug-14 14:31N 48°48' W 123°21'713.8
2017-Aug-14 14:00N 48°41' W 123°25'0 0.0
2017-Aug-14 13:27N 48°41' W 123°25'0 0.0
2017-Aug-14 12:59N 48°41' W 123°25'0 0.0
2017-Aug-14 12:29N 48°41' W 123°25'0 0.0
2017-Aug-14 11:59N 48°41' W 123°25'0 0.0
2017-Aug-14 11:29N 48°41' W 123°25'0 0.0
2017-Aug-14 10:59N 48°41' W 123°25'0 0.0
2017-Aug-14 10:29N 48°41' W 123°25'0 0.0
2017-Aug-14 06:11N 48°41' W 123°25'0 0.0
2017-Aug-14 05:59N 48°41' W 123°25'510.7
2017-Aug-14 05:31N 48°46' W 123°21'816.9
2017-Aug-14 05:00N 48°54' W 123°17'917.2
2017-Aug-14 04:30N 49°00' W 123°08'0 0.3
2017-Aug-14 03:59N 49°00' W 123°08'611.5
2017-Aug-14 03:30N 48°56' W 123°13'815.7
2017-Aug-14 03:00N 48°50' W 123°21'817.2
2017-Aug-14 02:30N 48°42' W 123°25'1 1.2
2017-Aug-14 02:00N 48°41' W 123°25'3 6.4
2017-Aug-14 01:30N 48°43' W 123°21'816.7
2017-Aug-14 01:00N 48°52' W 123°20'918.1
2017-Aug-14 00:30N 48°59' W 123°11'3 5.1
2017-Aug-14 00:00N 49°00' W 123°08'1 1.9
2017-Aug-13 23:30N 48°60' W 123°09'1019.7
2017-Aug-13 23:00N 48°52' W 123°18'815.6
2017-Aug-13 22:30N 48°45' W 123°23'4 7.3
2017-Aug-13 22:00N 48°41' W 123°25'0 0.9
2017-Aug-13 21:30N 48°42' W 123°24'917.9
2017-Aug-13 21:01N 48°50' W 123°21'918.4
2017-Aug-13 20:30N 48°57' W 123°12'4 8.2
2017-Aug-13 20:00N 49°00' W 123°08'2 4.4
2017-Aug-13 19:30N 48°58' W 123°10'918.5
2017-Aug-13 19:01N 48°51' W 123°19'713.6
2017-Aug-13 18:30N 48°45' W 123°22'4 8.1
2017-Aug-13 18:00N 48°41' W 123°25'1 1.2
2017-Aug-13 17:30N 48°42' W 123°24'917.3
2017-Aug-13 17:00N 48°50' W 123°21'816.6
2017-Aug-13 16:30N 48°57' W 123°14'5 9.6
2017-Aug-13 15:58N 49°00' W 123°08'1 2.9
2017-Aug-13 15:30N 48°59' W 123°09'714.6
2017-Aug-13 15:01N 48°54' W 123°16'714.1
2017-Aug-13 14:31N 48°47' W 123°21'713.0
2017-Aug-13 14:00N 48°41' W 123°25'0 0.0
2017-Aug-13 13:30N 48°41' W 123°25'0 0.0
2017-Aug-13 13:00N 48°41' W 123°25'0 0.0
2017-Aug-13 12:30N 48°41' W 123°25'0 0.0
2017-Aug-13 12:00N 48°41' W 123°25'0 0.0
2017-Aug-13 11:30N 48°41' W 123°25'0 0.0
2017-Aug-13 11:00N 48°41' W 123°25'0 0.0
2017-Aug-13 10:30N 48°41' W 123°25'0 0.0
2017-Aug-13 10:00N 48°41' W 123°25'0 0.0
2017-Aug-13 09:24N 48°41' W 123°25'0 0.0
2017-Aug-13 08:54N 48°41' W 123°25'0 0.0
2017-Aug-13 08:24N 48°41' W 123°25'0 0.0
2017-Aug-13 06:06N 48°41' W 123°25'0 0.0
2017-Aug-13 05:54N 48°41' W 123°25'0 0.0
2017-Aug-13 05:30N 48°41' W 123°25'611.8
2017-Aug-13 05:00N 48°47' W 123°21'816.5
2017-Aug-13 04:30N 48°54' W 123°17'816.4
2017-Aug-13 04:01N 49°00' W 123°08'0 0.2
2017-Aug-13 03:30N 49°00' W 123°08'815.5
2017-Aug-13 03:00N 48°54' W 123°15'816.1
2017-Aug-13 02:30N 48°47' W 123°21'612.5
2017-Aug-13 02:00N 48°41' W 123°25'1 2.6
2017-Aug-13 01:30N 48°42' W 123°23'917.4
2017-Aug-13 01:00N 48°50' W 123°21'714.1
2017-Aug-13 00:30N 48°56' W 123°15'612.5
2017-Aug-13 00:00N 49°00' W 123°08'0 0.0
2017-Aug-12 23:31N 49°00' W 123°08'714.8
2017-Aug-12 23:00N 48°55' W 123°15'815.7
2017-Aug-12 22:30N 48°48' W 123°21'713.6
2017-Aug-12 22:00N 48°41' W 123°25'0 0.2
2017-Aug-12 21:30N 48°41' W 123°25'815.7
2017-Aug-12 21:00N 48°49' W 123°21'816.3
2017-Aug-12 20:30N 48°56' W 123°14'612.3
2017-Aug-12 20:00N 49°00' W 123°08'0 0.0
2017-Aug-12 19:30N 49°00' W 123°08'816.5
2017-Aug-12 19:00N 48°54' W 123°16'714.3
2017-Aug-12 18:30N 48°47' W 123°21'713.3
2017-Aug-12 18:01N 48°41' W 123°25'0 0.0
2017-Aug-12 17:31N 48°41' W 123°25'713.1
2017-Aug-12 17:00N 48°47' W 123°20'815.8
2017-Aug-12 16:31N 48°55' W 123°16'815.6
2017-Aug-12 16:01N 49°00' W 123°08'0 0.0
2017-Aug-12 15:30N 49°00' W 123°08'816.0
2017-Aug-12 15:00N 48°54' W 123°16'713.7
2017-Aug-12 14:30N 48°48' W 123°21'714.4
2017-Aug-12 14:01N 48°41' W 123°25'0 0.1
2017-Aug-12 13:31N 48°41' W 123°25'0 0.0
2017-Aug-12 13:01N 48°41' W 123°25'0 0.0
2017-Aug-12 12:31N 48°41' W 123°25'0 0.0
2017-Aug-12 11:59N 48°41' W 123°25'0 0.0
2017-Aug-12 11:29N 48°41' W 123°25'0 0.0
2017-Aug-12 10:59N 48°41' W 123°25'0 0.0
2017-Aug-12 10:26N 48°41' W 123°25'0 0.0
2017-Aug-12 09:59N 48°41' W 123°25'0 0.0
2017-Aug-12 09:29N 48°41' W 123°25'0 0.0
2017-Aug-12 08:59N 48°41' W 123°25'0 0.0
2017-Aug-12 08:29N 48°41' W 123°25'0 0.0
2017-Aug-12 07:59N 48°41' W 123°25'0 0.0
2017-Aug-12 07:29N 48°41' W 123°25'0 0.0
2017-Aug-12 06:59N 48°41' W 123°25'0 0.0
2017-Aug-12 06:29N 48°41' W 123°25'0 0.0
2017-Aug-12 05:59N 48°41' W 123°25'1 2.8
2017-Aug-12 05:30N 48°42' W 123°23'918.9
2017-Aug-12 05:00N 48°51' W 123°21'918.6
2017-Aug-12 04:30N 48°58' W 123°12'4 7.1
2017-Aug-12 04:00N 49°00' W 123°08'2 3.6
2017-Aug-12 03:31N 48°59' W 123°09'918.6
2017-Aug-12 03:00N 48°52' W 123°19'816.8
2017-Aug-12 02:30N 48°44' W 123°24'3 5.6
2017-Aug-12 02:00N 48°41' W 123°25'2 4.5
2017-Aug-12 01:30N 48°42' W 123°22'918.2
2017-Aug-12 01:00N 48°51' W 123°21'816.7
2017-Aug-12 00:31N 48°57' W 123°12'4 8.1
2017-Aug-12 00:00N 49°00' W 123°08'1 1.6
2017-Aug-11 23:30N 48°60' W 123°09'1020.1
2017-Aug-11 23:00N 48°52' W 123°18'816.4
2017-Aug-11 22:30N 48°44' W 123°24'3 6.3
2017-Aug-11 22:00N 48°41' W 123°25'1 2.3
2017-Aug-11 21:31N 48°42' W 123°23'918.3
2017-Aug-11 21:00N 48°51' W 123°21'917.3
2017-Aug-11 20:30N 48°57' W 123°13'4 8.9
2017-Aug-11 20:00N 49°00' W 123°08'1 2.4
2017-Aug-11 19:30N 48°59' W 123°09'918.3
2017-Aug-11 19:00N 48°52' W 123°18'611.6
2017-Aug-11 18:30N 48°47' W 123°21'612.3
2017-Aug-11 18:00N 48°41' W 123°25'0 0.3
2017-Aug-11 17:30N 48°41' W 123°25'816.4
2017-Aug-11 17:00N 48°49' W 123°20'713.7
2017-Aug-11 16:30N 48°55' W 123°15'714.1
2017-Aug-11 16:01N 49°00' W 123°08'0 0.0
2017-Aug-11 15:30N 49°00' W 123°08'815.8
2017-Aug-11 15:00N 48°54' W 123°16'1414.3
2017-Aug-11 14:00N 48°41' W 123°25'0 0.0
2017-Aug-11 13:30N 48°41' W 123°25'0 0.0
2017-Aug-11 12:58N 48°41' W 123°25'0 0.0
2017-Aug-11 12:28N 48°41' W 123°25'0 0.0
2017-Aug-11 11:58N 48°41' W 123°25'0 0.0
2017-Aug-11 11:28N 48°41' W 123°25'0 0.0
2017-Aug-11 10:58N 48°41' W 123°25'0 0.0
2017-Aug-11 10:28N 48°41' W 123°25'0 0.0
2017-Aug-11 09:58N 48°41' W 123°25'0 0.0
2017-Aug-11 09:28N 48°41' W 123°25'0 0.0
2017-Aug-11 08:58N 48°41' W 123°25'0 0.0
2017-Aug-11 08:28N 48°41' W 123°25'0 0.0
2017-Aug-11 07:58N 48°41' W 123°25'0 0.0
2017-Aug-11 07:28N 48°41' W 123°25'0 0.0
2017-Aug-11 06:55N 48°41' W 123°25'0 0.0
2017-Aug-11 06:28N 48°41' W 123°25'0 0.0
2017-Aug-11 05:58N 48°41' W 123°25'0 0.0
2017-Aug-11 05:30N 48°41' W 123°25'612.2
2017-Aug-11 05:00N 48°47' W 123°20'917.7
2017-Aug-11 04:30N 48°55' W 123°16'714.9
2017-Aug-11 04:00N 49°00' W 123°08'0 0.3
2017-Aug-11 03:30N 49°00' W 123°08'816.7
2017-Aug-11 03:00N 48°54' W 123°16'815.5
2017-Aug-11 02:30N 48°47' W 123°20'611.8
2017-Aug-11 02:00N 48°41' W 123°25'1 1.0
2017-Aug-11 01:30N 48°42' W 123°24'816.4
2017-Aug-11 01:00N 48°49' W 123°20'714.0
2017-Aug-11 00:30N 48°56' W 123°15'713.0
2017-Aug-10 23:59N 49°00' W 123°08'0 0.3
2017-Aug-10 23:31N 49°00' W 123°08'918.9
2017-Aug-10 23:01N 48°53' W 123°17'817.0
2017-Aug-10 22:31N 48°45' W 123°21'4 8.7
2017-Aug-10 22:00N 48°41' W 123°25'1 2.9
2017-Aug-10 21:31N 48°42' W 123°23'918.6
2017-Aug-10 21:01N 48°51' W 123°21'816.9
2017-Aug-10 20:31N 48°57' W 123°13'5 8.9
2017-Aug-10 20:00N 49°00' W 123°08'1 1.6
2017-Aug-10 19:31N 48°60' W 123°09'1019.5
2017-Aug-10 19:00N 48°52' W 123°18'613.0
2017-Aug-10 18:31N 48°46' W 123°21'510.3
2017-Aug-10 18:00N 48°41' W 123°25'1 1.1
2017-Aug-10 17:31N 48°42' W 123°24'816.5
2017-Aug-10 17:00N 48°50' W 123°21'713.9
2017-Aug-10 16:30N 48°56' W 123°15'713.8
2017-Aug-10 16:01N 49°00' W 123°08'0 0.0
2017-Aug-10 15:30N 49°00' W 123°08'815.2
2017-Aug-10 15:00N 48°54' W 123°15'714.4
2017-Aug-10 14:30N 48°48' W 123°21'714.6
2017-Aug-10 14:00N 48°41' W 123°25'0 0.0
2017-Aug-10 13:31N 48°41' W 123°25'  

Dump ship's entire track history